createdAt,value
2018-06-04T00:00:02.804Z,78.60
2018-06-04T00:02:31.584Z,78.40
2018-06-04T00:05:00.362Z,78.70
2018-06-04T00:09:57.982Z,78.70
2018-06-04T00:12:26.795Z,78.50
2018-06-04T00:17:52.755Z,77.40
2018-06-04T00:20:21.536Z,77.30
2018-06-04T00:22:50.363Z,77.50
2018-06-04T00:27:47.626Z,78.00
2018-06-04T00:35:13.490Z,77.90
2018-06-04T00:37:42.271Z,77.80
2018-06-04T00:40:11.029Z,77.90
2018-06-04T00:42:39.920Z,78.20
2018-06-04T00:45:08.706Z,78.70
2018-06-04T00:47:37.706Z,78.70
2018-06-04T00:50:06.493Z,78.50
2018-06-04T00:52:35.282Z,78.70
2018-06-04T00:55:04.054Z,78.40
2018-06-04T00:57:32.869Z,78.60
2018-06-04T01:00:01.706Z,78.40
2018-06-04T01:02:30.494Z,78.90
2018-06-04T01:04:59.262Z,79.60
2018-06-04T01:07:28.041Z,79.30
2018-06-04T01:09:56.834Z,79.70
2018-06-04T01:12:25.698Z,79.20
2018-06-04T01:14:54.489Z,79.80
2018-06-04T01:17:23.277Z,80.20
2018-06-04T01:19:52.066Z,80.50
2018-06-04T01:22:20.866Z,79.80
2018-06-04T01:27:18.130Z,80.20
2018-06-04T01:32:15.513Z,79.80
2018-06-04T01:34:44.290Z,80.20
2018-06-04T01:37:13.086Z,80.20
2018-06-04T01:39:41.874Z,79.70
2018-06-04T01:44:39.130Z,79.40
2018-06-04T01:47:07.921Z,79.20
2018-06-04T01:49:36.681Z,80.00
2018-06-04T01:52:05.694Z,80.30
2018-06-04T01:54:34.466Z,80.80
2018-06-04T01:57:03.258Z,81.30
2018-06-04T01:59:32.046Z,82.30
2018-06-04T02:02:01.085Z,82.00
2018-06-04T02:04:29.866Z,81.30
2018-06-04T02:06:58.637Z,81.70
2018-06-04T02:09:27.442Z,82.50
2018-06-04T02:11:56.218Z,82.40
2018-06-04T02:14:25.122Z,83.70
2018-06-04T02:19:22.474Z,82.40
2018-06-04T02:21:51.270Z,82.00
2018-06-04T02:24:20.066Z,83.20
2018-06-04T02:29:17.393Z,83.40
2018-06-04T02:31:46.186Z,83.40
2018-06-04T02:34:15.018Z,84.70
2018-06-04T02:39:12.327Z,84.60
2018-06-04T02:41:41.098Z,85.30
2018-06-04T02:44:09.968Z,85.30
2018-06-04T02:49:07.357Z,85.30
2018-06-04T02:51:36.137Z,85.30
2018-06-04T02:54:04.926Z,85.50
2018-06-04T02:56:33.708Z,85.50
2018-06-04T02:59:02.502Z,85.40
2018-06-04T03:01:31.274Z,85.50
2018-06-04T03:06:28.579Z,86.30
2018-06-04T03:08:57.346Z,85.40
2018-06-04T03:11:26.122Z,86.50
2018-06-04T03:16:23.443Z,90.00
2018-06-04T03:18:52.234Z,89.10
2018-06-04T03:21:21.042Z,87.90
2018-06-04T03:23:49.849Z,87.80
2018-06-04T03:26:18.718Z,88.20
2018-06-04T03:28:47.522Z,88.50
2018-06-04T03:31:16.319Z,88.90
2018-06-04T03:33:45.218Z,88.10
2018-06-04T03:36:13.979Z,87.90
2018-06-04T03:38:43.109Z,87.90
2018-06-04T03:43:40.370Z,88.50
2018-06-04T03:48:37.621Z,90.10
2018-06-04T03:51:06.394Z,89.80
2018-06-04T03:53:35.187Z,89.50
2018-06-04T03:56:03.978Z,89.30
2018-06-04T03:58:32.758Z,89.50
2018-06-04T04:01:01.551Z,89.10
2018-06-04T04:03:30.338Z,90.00
2018-06-04T04:05:59.125Z,90.10
2018-06-04T04:08:27.926Z,89.50
2018-06-04T04:10:56.747Z,89.40
2018-06-04T04:15:54.009Z,89.70
2018-06-04T04:20:51.333Z,89.30
2018-06-04T04:23:20.341Z,88.60
2018-06-04T04:25:49.150Z,89.70
2018-06-04T04:28:17.971Z,90.00
2018-06-04T04:33:15.362Z,89.90
2018-06-04T04:35:44.215Z,90.10
2018-06-04T04:40:41.523Z,90.40
2018-06-04T04:43:10.421Z,90.60
2018-06-04T04:45:39.230Z,90.80
2018-06-04T04:48:08.017Z,90.80
2018-06-04T04:50:36.806Z,90.80
2018-06-04T04:53:05.640Z,90.50
2018-06-04T04:55:34.526Z,91.00
2018-06-04T04:58:03.398Z,91.10
2018-06-04T05:00:32.300Z,91.10
2018-06-04T05:03:01.074Z,91.30
2018-06-04T05:05:29.878Z,90.60
2018-06-04T05:10:27.222Z,90.80
2018-06-04T05:12:56.010Z,91.10
2018-06-04T05:15:24.834Z,91.40
2018-06-04T05:20:22.167Z,90.80
2018-06-04T05:22:50.958Z,91.00
2018-06-04T05:25:19.762Z,91.10
2018-06-04T05:27:48.531Z,90.90
2018-06-04T05:30:17.352Z,90.80
2018-06-04T05:35:14.609Z,90.50
2018-06-04T05:37:43.366Z,90.20
2018-06-04T05:40:12.134Z,90.30
2018-06-04T05:42:40.898Z,90.30
2018-06-04T05:45:09.745Z,90.00
2018-06-04T05:47:38.518Z,90.20
2018-06-04T05:50:07.339Z,90.00
2018-06-04T05:52:36.110Z,90.00
2018-06-04T05:55:05.110Z,90.30
2018-06-04T05:57:34.074Z,89.70
2018-06-04T06:00:03.135Z,90.10
2018-06-04T06:02:31.918Z,90.20
2018-06-04T06:07:29.230Z,90.20
2018-06-04T06:09:58.057Z,89.80
2018-06-04T06:12:26.829Z,90.10
2018-06-04T06:14:55.634Z,90.50
2018-06-04T06:17:24.453Z,90.30
2018-06-04T06:19:53.292Z,90.50
2018-06-04T06:22:22.061Z,90.10
2018-06-04T06:24:50.985Z,90.20
2018-06-04T06:27:19.780Z,90.10
2018-06-04T06:29:48.558Z,90.10
2018-06-04T06:32:17.393Z,90.20
2018-06-04T06:34:46.193Z,90.70
2018-06-04T06:37:14.959Z,90.40
2018-06-04T06:42:12.258Z,90.70
2018-06-04T06:44:41.026Z,90.60
2018-06-04T06:47:09.801Z,91.10
2018-06-04T06:52:07.073Z,90.50
2018-06-04T06:57:04.618Z,90.40
2018-06-04T06:59:33.418Z,90.40
2018-06-04T07:02:02.248Z,90.50
2018-06-04T07:04:30.981Z,90.50
2018-06-04T07:06:59.779Z,90.50
2018-06-04T07:09:28.586Z,90.90
2018-06-04T07:11:57.382Z,91.00
2018-06-04T07:16:54.666Z,90.30
2018-06-04T07:19:23.461Z,91.20
2018-06-04T07:21:52.286Z,90.60
2018-06-04T07:24:21.078Z,90.20
2018-06-04T07:26:49.929Z,89.10
2018-06-04T07:29:18.692Z,88.70
2018-06-04T07:34:16.081Z,89.50
2018-06-04T07:36:44.895Z,89.90
2018-06-04T07:39:13.750Z,89.00
2018-06-04T07:44:11.406Z,88.30
2018-06-04T07:46:40.252Z,88.70
2018-06-04T07:49:09.021Z,89.30
2018-06-04T07:51:37.843Z,89.10
2018-06-04T07:54:06.810Z,89.40
2018-06-04T07:56:35.653Z,89.30
2018-06-04T07:59:04.646Z,89.20
2018-06-04T08:01:33.465Z,89.70
2018-06-04T08:06:30.812Z,89.10
2018-06-04T08:08:59.590Z,88.70
2018-06-04T08:11:28.367Z,89.40
2018-06-04T08:13:57.179Z,89.90
2018-06-04T08:16:25.977Z,89.20
2018-06-04T08:18:54.741Z,88.90
2018-06-04T08:21:23.575Z,88.70
2018-06-04T08:26:20.854Z,88.70
2018-06-04T08:28:49.637Z,88.70
2018-06-04T08:31:18.439Z,89.60
2018-06-04T08:33:47.194Z,89.80
2018-06-04T08:36:15.962Z,89.70
2018-06-04T08:38:44.902Z,89.60
2018-06-04T08:41:13.687Z,90.40
2018-06-04T08:43:42.685Z,90.50
2018-06-04T08:46:11.478Z,90.40
2018-06-04T08:48:40.246Z,90.00
2018-06-04T08:53:37.787Z,90.00
2018-06-04T08:56:06.573Z,89.40
2018-06-04T08:58:35.338Z,90.10
2018-06-04T09:01:04.124Z,90.00
2018-06-04T09:03:32.904Z,90.00
2018-06-04T09:06:01.678Z,89.00
2018-06-04T09:08:30.445Z,88.40
2018-06-04T09:13:27.681Z,87.60
2018-06-04T09:15:56.480Z,86.60
2018-06-04T09:18:25.249Z,86.80
2018-06-04T09:20:54.078Z,87.10
2018-06-04T09:25:51.350Z,86.60
2018-06-04T09:28:20.135Z,86.60
2018-06-04T09:30:48.927Z,86.90
2018-06-04T09:33:17.694Z,87.10
2018-06-04T09:35:46.475Z,86.70
2018-06-04T09:38:15.262Z,85.80
2018-06-04T09:40:44.041Z,85.60
2018-06-04T09:43:12.822Z,85.50
2018-06-04T09:45:41.586Z,86.70
2018-06-04T09:48:10.394Z,86.40
2018-06-04T09:50:39.171Z,86.60
2018-06-04T09:53:07.952Z,86.60
2018-06-04T09:55:36.723Z,87.30
2018-06-04T10:00:39.068Z,86.80
2018-06-04T10:03:07.838Z,86.70
2018-06-04T10:05:36.606Z,86.10
2018-06-04T10:08:05.421Z,85.40
2018-06-04T10:10:34.211Z,83.90
2018-06-04T10:13:02.986Z,84.10
2018-06-04T10:15:31.754Z,83.10
2018-06-04T10:18:00.534Z,81.50
2018-06-04T10:20:29.322Z,81.00
2018-06-04T10:22:58.125Z,81.20
2018-06-04T10:25:26.882Z,81.50
2018-06-04T10:30:24.475Z,80.60
2018-06-04T10:32:53.279Z,79.20
2018-06-04T10:35:22.061Z,77.90
2018-06-04T10:40:19.381Z,77.60
2018-06-04T10:42:48.182Z,77.80
2018-06-04T10:45:16.959Z,76.20
2018-06-04T10:47:45.781Z,75.20
2018-06-04T10:55:11.506Z,75.30
2018-06-04T10:57:40.301Z,73.20
2018-06-04T11:00:09.079Z,73.50
2018-06-04T11:02:37.870Z,72.70
2018-06-04T11:05:06.654Z,72.50
2018-06-04T11:07:35.465Z,72.00
2018-06-04T11:10:04.357Z,71.30
2018-06-04T11:12:33.157Z,71.30
2018-06-04T11:17:30.470Z,69.00
2018-06-04T11:19:59.252Z,69.60
2018-06-04T11:22:28.046Z,68.60
2018-06-04T11:24:56.814Z,67.30
2018-06-04T11:27:25.591Z,66.80
2018-06-04T11:29:54.722Z,66.30
2018-06-04T11:32:23.503Z,65.90
2018-06-04T11:34:52.260Z,66.00
2018-06-04T11:37:21.052Z,66.30
2018-06-04T11:39:49.833Z,64.30
2018-06-04T11:44:47.102Z,62.80
2018-06-04T11:49:44.727Z,62.10
2018-06-04T11:52:13.487Z,62.70
2018-06-04T11:54:42.289Z,60.80
2018-06-04T11:57:11.057Z,60.90
2018-06-04T11:59:39.838Z,60.60
2018-06-04T12:04:37.153Z,60.10
2018-06-04T12:07:05.917Z,59.80
2018-06-04T12:09:34.689Z,57.80
2018-06-04T12:12:03.463Z,58.90
2018-06-04T12:14:32.249Z,57.90
2018-06-04T12:17:01.013Z,55.70
2018-06-04T12:19:29.876Z,55.30
2018-06-04T12:21:58.669Z,55.40
2018-06-04T12:24:27.453Z,55.90
2018-06-04T12:26:56.226Z,56.60
2018-06-04T12:29:25.017Z,55.00
2018-06-04T12:31:53.797Z,54.40
2018-06-04T12:34:22.581Z,53.80
2018-06-04T12:36:51.339Z,53.90
2018-06-04T12:39:20.125Z,54.40
2018-06-04T12:41:48.921Z,53.50
2018-06-04T12:44:17.687Z,50.10
2018-06-04T12:46:46.505Z,51.20
2018-06-04T12:49:15.301Z,48.40
2018-06-04T12:51:44.087Z,48.50
2018-06-04T12:56:41.414Z,48.30
2018-06-04T12:59:10.201Z,49.60
2018-06-04T13:01:38.970Z,49.50
2018-06-04T13:04:07.742Z,48.60
2018-06-04T13:06:36.522Z,49.10
2018-06-04T13:09:07.266Z,49.80
2018-06-04T13:11:36.031Z,48.60
2018-06-04T13:16:33.300Z,48.10
2018-06-04T13:21:30.658Z,49.40
2018-06-04T13:24:00.696Z,48.10
2018-06-04T13:26:29.723Z,47.90
2018-06-04T13:28:58.497Z,48.30
2018-06-04T13:31:27.266Z,45.20
2018-06-04T13:36:24.501Z,43.60
2018-06-04T13:38:53.409Z,44.70
2018-06-04T13:41:22.181Z,43.00
2018-06-04T13:43:51.026Z,42.00
2018-06-04T13:46:19.785Z,41.40
2018-06-04T13:48:48.553Z,43.50
2018-06-04T13:51:17.314Z,42.90
2018-06-04T13:53:46.092Z,41.90
2018-06-04T13:56:14.867Z,43.50
2018-06-04T13:58:43.629Z,43.00
2018-06-04T14:03:41.033Z,40.90
2018-06-04T14:06:09.818Z,39.40
2018-06-04T14:08:38.596Z,39.50
2018-06-04T14:11:07.361Z,39.60
2018-06-04T14:16:04.749Z,36.80
2018-06-04T14:18:33.545Z,37.50
2018-06-04T14:21:02.513Z,38.30
2018-06-04T14:23:31.305Z,37.60
2018-06-04T14:26:00.066Z,38.40
2018-06-04T14:28:28.858Z,40.10
2018-06-04T14:30:57.681Z,39.70
2018-06-04T14:35:54.968Z,38.40
2018-06-04T14:38:23.741Z,38.60
2018-06-04T14:43:21.029Z,43.10
2018-06-04T14:45:49.818Z,42.80
2018-06-04T14:48:18.590Z,43.40
2018-06-04T14:53:15.861Z,41.10
2018-06-04T14:55:44.636Z,38.40
2018-06-04T14:58:13.409Z,37.40
2018-06-04T15:00:43.096Z,39.40
2018-06-04T15:03:12.289Z,39.90
2018-06-04T15:05:41.041Z,40.90
2018-06-04T15:08:09.821Z,40.80
2018-06-04T15:13:07.081Z,41.40
2018-06-04T15:15:36.007Z,40.60
2018-06-04T15:18:05.220Z,41.80
2018-06-04T15:20:33.969Z,41.30
2018-06-04T15:25:31.253Z,42.20
2018-06-04T15:28:00.021Z,41.30
2018-06-04T15:30:29.084Z,40.10
2018-06-04T15:32:57.865Z,39.70
2018-06-04T15:35:26.990Z,39.60
2018-06-04T15:37:55.874Z,40.90
2018-06-04T15:40:24.522Z,42.90
2018-06-04T15:42:53.286Z,43.80
2018-06-04T15:45:22.069Z,43.60
2018-06-04T15:50:19.337Z,44.70
2018-06-04T15:55:16.553Z,45.10
2018-06-04T15:57:45.334Z,43.20
2018-06-04T16:00:14.161Z,42.70
2018-06-04T16:02:42.935Z,43.80
2018-06-04T16:05:11.713Z,44.20
2018-06-04T16:07:40.491Z,45.30
2018-06-04T16:10:09.264Z,45.50
2018-06-04T16:12:38.013Z,47.30
2018-06-04T16:15:06.814Z,46.70
2018-06-04T16:20:04.060Z,46.20
2018-06-04T16:22:32.833Z,46.70
2018-06-04T16:25:01.618Z,47.40
2018-06-04T16:27:30.385Z,49.00
2018-06-04T16:29:59.152Z,48.20
2018-06-04T16:32:27.933Z,45.40
2018-06-04T16:34:56.717Z,44.40
2018-06-04T16:37:25.565Z,45.00
2018-06-04T16:42:22.777Z,43.30
2018-06-04T16:44:51.567Z,43.50
2018-06-04T16:47:20.348Z,46.00
2018-06-04T16:49:49.129Z,47.40
2018-06-04T16:54:46.472Z,47.90
2018-06-04T16:57:15.241Z,46.80
2018-06-04T16:59:44.006Z,47.90
2018-06-04T17:02:12.973Z,48.50
2018-06-04T17:07:10.289Z,50.00
2018-06-04T17:09:39.057Z,49.90
2018-06-04T17:12:07.914Z,50.40
2018-06-04T17:14:36.905Z,49.90
2018-06-04T17:17:05.702Z,51.50
2018-06-04T17:22:02.978Z,52.00
2018-06-04T17:29:28.722Z,53.20
2018-06-04T17:31:57.505Z,53.50
2018-06-04T17:34:26.273Z,54.10
2018-06-04T17:36:55.059Z,54.80
2018-06-04T17:39:24.466Z,54.70
2018-06-04T17:41:53.260Z,55.00
2018-06-04T17:44:22.017Z,55.20
2018-06-04T17:46:50.862Z,54.60
2018-06-04T17:51:48.144Z,56.20
2018-06-04T17:54:16.921Z,56.30
2018-06-04T17:59:14.394Z,54.40
2018-06-04T18:01:43.177Z,56.00
2018-06-04T18:06:41.366Z,55.60
2018-06-04T18:09:10.640Z,55.60
2018-06-04T18:11:39.414Z,55.70
2018-06-04T18:14:08.342Z,55.60
2018-06-04T18:16:37.286Z,56.10
2018-06-04T18:21:34.725Z,56.60
2018-06-04T18:24:03.504Z,55.80
2018-06-04T18:26:32.363Z,55.60
2018-06-04T18:29:01.137Z,55.50
2018-06-04T18:31:29.899Z,57.20
2018-06-04T18:33:58.718Z,58.30
2018-06-04T18:36:27.501Z,59.30
2018-06-04T18:38:56.324Z,60.10
2018-06-04T18:41:25.944Z,60.30
2018-06-04T18:43:55.775Z,61.70
2018-06-04T18:46:24.703Z,62.80
2018-06-04T18:48:53.653Z,63.50
2018-06-04T18:51:22.619Z,63.90
2018-06-04T18:53:53.132Z,62.90
2018-06-04T18:56:21.905Z,61.90
2018-06-04T18:58:50.685Z,62.20
2018-06-04T19:01:19.509Z,63.70
2018-06-04T19:03:48.428Z,64.70
2018-06-04T19:06:17.190Z,63.90
2018-06-04T19:08:46.028Z,64.10
2018-06-04T19:11:14.745Z,64.70
2018-06-04T19:13:43.533Z,65.50
2018-06-04T19:16:13.117Z,65.80
2018-06-04T19:18:41.996Z,65.60
2018-06-04T19:21:10.798Z,66.60
2018-06-04T19:23:39.564Z,66.40
2018-06-04T19:26:08.337Z,66.50
2018-06-04T19:28:37.131Z,66.40
2018-06-04T19:31:05.952Z,67.10
2018-06-04T19:33:34.728Z,67.70
2018-06-04T19:36:03.508Z,66.80
2018-06-04T19:38:32.300Z,66.80
2018-06-04T19:41:01.101Z,67.40
2018-06-04T19:43:29.913Z,67.60
2018-06-04T19:45:58.776Z,67.70
2018-06-04T19:48:27.662Z,69.00
2018-06-04T19:50:56.432Z,69.80
2018-06-04T19:53:25.327Z,69.70
2018-06-04T19:55:54.109Z,69.70
2018-06-04T19:58:22.905Z,69.80
2018-06-04T20:00:51.690Z,70.00
2018-06-04T20:03:20.509Z,70.10
2018-06-04T20:05:49.317Z,70.70
2018-06-04T20:08:18.160Z,70.90
2018-06-04T20:10:46.939Z,71.50
2018-06-04T20:13:15.733Z,72.10
2018-06-04T20:15:44.524Z,72.50
2018-06-04T20:18:13.309Z,72.50
2018-06-04T20:20:42.093Z,72.20
2018-06-04T20:23:10.981Z,72.40
2018-06-04T20:25:39.775Z,72.80
2018-06-04T20:28:08.846Z,73.20
2018-06-04T20:30:37.646Z,73.20
2018-06-04T20:33:06.487Z,73.50
2018-06-04T20:35:35.225Z,74.00
2018-06-04T20:38:04.027Z,74.10
2018-06-04T20:40:32.869Z,73.90
2018-06-04T20:43:01.635Z,73.50
2018-06-04T20:45:30.432Z,74.60
2018-06-04T20:47:59.294Z,74.50
2018-06-04T20:50:28.090Z,75.10
2018-06-04T20:52:56.874Z,75.50
2018-06-04T20:55:25.644Z,75.60
2018-06-04T20:57:54.433Z,75.50
2018-06-04T21:00:23.205Z,75.50
2018-06-04T21:02:51.973Z,76.40
2018-06-04T21:05:20.760Z,76.30
2018-06-04T21:07:49.658Z,77.20
2018-06-04T21:10:18.442Z,77.80
2018-06-04T21:12:47.200Z,77.90
2018-06-04T21:15:16.077Z,77.40
2018-06-04T21:17:44.952Z,78.10
2018-06-04T21:20:13.753Z,77.70
2018-06-04T21:25:11.198Z,78.20
2018-06-04T21:27:39.985Z,77.60
2018-06-04T21:30:08.813Z,77.10
2018-06-04T21:32:37.605Z,77.30
2018-06-04T21:35:06.461Z,77.30
2018-06-04T21:37:35.269Z,77.40
2018-06-04T21:40:04.400Z,77.30
2018-06-04T21:42:33.161Z,77.00
2018-06-04T21:45:02.002Z,77.40
2018-06-04T21:47:30.762Z,76.70
2018-06-04T21:49:59.553Z,76.20
2018-06-04T21:52:28.461Z,76.90
2018-06-04T21:54:57.322Z,76.90
2018-06-04T21:57:26.102Z,76.70
2018-06-04T22:02:23.461Z,78.10
2018-06-04T22:04:52.277Z,77.10
2018-06-04T22:07:21.046Z,78.20
2018-06-04T22:12:18.341Z,78.70
2018-06-04T22:14:47.609Z,78.30
2018-06-04T22:17:16.392Z,78.60
2018-06-04T22:19:45.193Z,78.10
2018-06-04T22:24:42.477Z,78.90
2018-06-04T22:29:39.897Z,78.20
2018-06-04T22:32:08.703Z,77.90
2018-06-04T22:34:37.865Z,77.80
2018-06-04T22:37:06.614Z,78.10
2018-06-04T22:42:03.967Z,78.10
2018-06-04T22:44:32.805Z,78.30
2018-06-04T22:47:01.574Z,78.60
2018-06-04T22:49:30.396Z,78.30
2018-06-04T22:51:59.157Z,77.90
2018-06-04T22:54:27.971Z,78.10
2018-06-04T22:56:56.732Z,78.10
2018-06-04T22:59:25.682Z,78.10
2018-06-04T23:01:54.460Z,77.50
2018-06-04T23:04:23.293Z,77.60
2018-06-04T23:09:20.855Z,77.80
2018-06-04T23:11:49.977Z,78.30
2018-06-04T23:16:47.385Z,78.50
2018-06-04T23:19:16.256Z,79.00
2018-06-04T23:21:45.030Z,79.10
2018-06-04T23:24:13.851Z,78.40
2018-06-04T23:26:42.654Z,78.70
2018-06-04T23:29:11.505Z,79.00
2018-06-04T23:31:40.346Z,79.30
2018-06-04T23:34:09.128Z,78.50
2018-06-04T23:36:37.957Z,78.80
2018-06-04T23:41:36.009Z,79.50
2018-06-04T23:44:04.801Z,79.80
2018-06-04T23:46:33.717Z,80.10
2018-06-04T23:49:02.501Z,80.20
2018-06-04T23:51:31.449Z,80.70
2018-06-04T23:54:00.260Z,81.20
2018-06-04T23:56:29.061Z,82.00
2018-06-04T23:58:57.817Z,81.20
